Time;durP1;ratioP1;P1;durP2;ratioP2;P2;SDS_P1;SDS_P2;PMS_P1;PMS_P2;Temp;Humidity;BMP_temperature;BMP_pressure;BME280_temperature;BME280_humidity;BME280_pressure;Samples;Min_cycle;Max_cycle;Signal;HPM_P1;HPM_P2
2023/04/26 00:00:01;;;;;;;14.38;3.35;;;3.00;99.90;;;;;;5035811;28;20064;-69
2023/04/26 00:02:28;;;;;;;13.60;3.53;;;3.00;99.90;;;;;;4981384;28;207927;-69
2023/04/26 00:05:00;;;;;;;15.05;3.15;;;3.00;99.90;;;;;;5031975;28;20868;-70
2023/04/26 00:07:27;;;;;;;13.52;3.33;;;3.00;99.90;;;;;;4997482;28;206929;-69
2023/04/26 00:09:53;;;;;;;10.07;2.75;;;3.10;99.90;;;;;;5047866;28;20064;-69
2023/04/26 00:12:20;;;;;;;12.80;3.00;;;3.10;99.90;;;;;;4998335;28;221782;-69
2023/04/26 00:14:46;;;;;;;14.88;3.47;;;3.20;99.90;;;;;;5048538;28;20060;-69
2023/04/26 00:17:13;;;;;;;14.43;3.28;;;3.20;99.90;;;;;;4999459;28;203339;-70
2023/04/26 00:19:39;;;;;;;12.27;3.13;;;3.30;99.90;;;;;;5041396;28;20063;-69
2023/04/26 00:22:05;;;;;;;14.63;3.00;;;3.30;99.90;;;;;;5001034;28;210623;-69
2023/04/26 00:24:31;;;;;;;12.60;3.20;;;3.30;99.90;;;;;;5055026;28;20060;-70
2023/04/26 00:26:57;;;;;;;13.60;3.40;;;3.30;99.90;;;;;;4994298;28;216463;-70
2023/04/26 00:29:23;;;;;;;12.82;2.85;;;3.40;99.90;;;;;;5048582;28;20055;-70
2023/04/26 00:31:49;;;;;;;17.48;3.53;;;3.40;99.90;;;;;;5003452;28;207682;-69
2023/04/26 00:34:16;;;;;;;14.15;3.00;;;3.30;99.90;;;;;;5060167;28;20059;-69
2023/04/26 00:36:42;;;;;;;11.27;2.80;;;3.30;99.90;;;;;;5010399;28;213562;-69
2023/04/26 00:39:09;;;;;;;15.60;3.38;;;3.30;99.90;;;;;;5071311;28;20060;-69
2023/04/26 00:41:35;;;;;;;16.02;3.30;;;3.30;99.90;;;;;;4998854;28;212125;-70
2023/04/26 00:44:01;;;;;;;13.40;3.00;;;3.30;99.90;;;;;;5042387;28;20060;-70
2023/04/26 00:46:29;;;;;;;13.98;2.97;;;3.20;99.90;;;;;;4998058;28;77163;-70
2023/04/26 00:48:56;;;;;;;15.50;3.00;;;3.20;99.90;;;;;;5033469;28;20195;-70
2023/04/26 00:51:22;;;;;;;12.07;2.72;;;3.20;99.90;;;;;;4980812;28;207336;-70
2023/04/26 00:53:48;;;;;;;17.88;3.55;;;3.10;99.90;;;;;;5038045;28;20076;-70
2023/04/26 00:56:15;;;;;;;13.07;3.37;;;3.10;99.90;;;;;;4970339;28;216187;-69
2023/04/26 00:58:42;;;;;;;14.05;3.20;;;3.10;99.90;;;;;;5060362;28;20052;-70
2023/04/26 01:01:08;;;;;;;15.70;3.20;;;3.00;99.90;;;;;;5008392;28;207747;-71
2023/04/26 01:03:35;;;;;;;19.67;3.08;;;3.00;99.90;;;;;;5014765;28;20049;-70
2023/04/26 01:06:01;;;;;;;14.93;2.97;;;2.90;99.90;;;;;;5036208;28;20053;-69
2023/04/26 01:08:27;;;;;;;13.07;3.22;;;2.90;99.90;;;;;;4997468;28;257873;-69
2023/04/26 01:10:53;;;;;;;17.50;3.28;;;2.90;99.90;;;;;;5042114;28;20079;-69
2023/04/26 01:13:20;;;;;;;13.90;3.35;;;2.90;99.90;;;;;;5003294;28;213414;-70
2023/04/26 01:15:47;;;;;;;15.32;2.88;;;2.90;99.90;;;;;;5055364;28;20056;-69
2023/04/26 01:18:14;;;;;;;11.65;3.13;;;2.80;99.90;;;;;;5020736;28;206683;-69
2023/04/26 01:20:41;;;;;;;12.27;3.25;;;2.80;99.90;;;;;;5057539;28;20066;-70
2023/04/26 01:23:08;;;;;;;11.25;3.38;;;2.80;99.90;;;;;;4986106;28;209205;-70
2023/04/26 01:25:35;;;;;;;10.40;2.90;;;2.70;99.90;;;;;;5058180;28;20051;-70
2023/04/26 01:28:01;;;;;;;11.45;3.20;;;2.70;99.90;;;;;;5013886;28;209529;-69
2023/04/26 01:30:27;;;;;;;14.60;3.42;;;2.70;99.90;;;;;;5043797;28;20056;-69
2023/04/26 01:32:54;;;;;;;14.07;3.13;;;2.70;99.90;;;;;;4986775;28;209154;-70
2023/04/26 01:35:20;;;;;;;13.90;3.35;;;2.60;99.90;;;;;;5044140;28;20044;-70
2023/04/26 01:37:47;;;;;;;17.52;3.35;;;2.70;99.90;;;;;;5001511;28;208105;-69
2023/04/26 01:40:13;;;;;;;12.68;3.53;;;2.70;99.90;;;;;;5040551;28;20537;-68
2023/04/26 01:42:39;;;;;;;12.40;3.13;;;2.70;99.90;;;;;;5005129;28;246233;-69
2023/04/26 01:45:05;;;;;;;12.60;3.20;;;2.70;99.90;;;;;;5054767;28;20059;-70
2023/04/26 01:47:31;;;;;;;16.25;3.50;;;2.70;99.90;;;;;;4994865;28;209570;-70
2023/04/26 01:49:57;;;;;;;13.32;3.17;;;2.70;99.90;;;;;;5055603;28;20059;-70
2023/04/26 01:52:24;;;;;;;11.43;3.30;;;2.70;99.90;;;;;;4997182;28;256177;-70
2023/04/26 01:54:50;;;;;;;14.32;3.55;;;2.80;99.90;;;;;;5054645;28;20351;-70
2023/04/26 01:57:16;;;;;;;12.27;3.20;;;2.80;99.90;;;;;;4981630;28;224155;-70
2023/04/26 01:59:42;;;;;;;14.23;3.05;;;2.80;99.90;;;;;;5046099;28;20064;-69
2023/04/26 02:02:08;;;;;;;12.90;3.20;;;2.90;99.90;;;;;;4978241;28;209171;-69
2023/04/26 02:04:34;;;;;;;12.05;3.03;;;2.90;99.90;;;;;;5032256;28;20048;-69
2023/04/26 02:07:00;;;;;;;15.60;3.20;;;2.90;99.90;;;;;;4980130;28;210839;-69
2023/04/26 02:09:26;;;;;;;13.40;3.05;;;3.00;99.90;;;;;;5046037;28;20731;-69
2023/04/26 02:11:52;;;;;;;10.82;2.80;;;3.00;99.90;;;;;;5001578;28;208183;-69
2023/04/26 02:14:19;;;;;;;15.45;2.97;;;3.00;99.90;;;;;;5057520;28;20059;-69
2023/04/26 02:16:45;;;;;;;16.10;3.25;;;2.90;99.90;;;;;;5005054;28;206354;-69
2023/04/26 02:19:12;;;;;;;17.25;2.90;;;2.90;99.90;;;;;;5055750;28;20903;-69
2023/04/26 02:21:56;;;;;;;13.50;3.25;;;2.90;99.90;;;;;;5010801;28;207968;-70
2023/04/26 02:24:23;;;;;;;13.73;3.00;;;2.80;99.90;;;;;;5053636;28;20056;-70
2023/04/26 02:26:51;;;;;;;17.63;3.22;;;2.80;99.90;;;;;;4989521;28;209541;-70
2023/04/26 02:29:17;;;;;;;13.30;3.22;;;2.80;99.90;;;;;;5045731;28;20063;-70
2023/04/26 02:31:43;;;;;;;12.90;3.15;;;2.80;99.90;;;;;;4993263;28;206498;-70
2023/04/26 02:34:09;;;;;;;15.48;3.08;;;2.80;99.90;;;;;;5037561;28;20044;-70
2023/04/26 02:36:35;;;;;;;12.65;3.05;;;2.80;99.90;;;;;;5000414;28;207156;-70
2023/04/26 02:39:02;;;;;;;10.00;2.85;;;2.80;99.90;;;;;;5057196;28;20052;-70
2023/04/26 02:41:30;;;;;;;11.63;2.90;;;2.80;99.90;;;;;;4995806;28;208514;-70
2023/04/26 02:43:56;;;;;;;11.90;3.08;;;2.80;99.90;;;;;;5046185;28;20052;-70
2023/04/26 02:46:22;;;;;;;11.00;2.70;;;2.80;99.90;;;;;;4996021;28;209858;-70
2023/04/26 02:48:48;;;;;;;12.10;2.75;;;2.80;99.90;;;;;;5058854;28;20083;-69
2023/04/26 02:51:15;;;;;;;14.48;3.05;;;2.80;99.90;;;;;;4998448;28;210510;-70
2023/04/26 02:53:41;;;;;;;11.88;3.00;;;2.80;99.90;;;;;;5057910;28;20513;-72
2023/04/26 02:56:07;;;;;;;12.45;2.95;;;2.80;99.90;;;;;;5017129;28;208554;-66
2023/04/26 02:58:33;;;;;;;11.55;2.88;;;2.80;99.90;;;;;;5010006;28;150564;-69
2023/04/26 03:00:59;;;;;;;12.93;3.10;;;2.80;99.90;;;;;;5050304;28;20056;-70
2023/04/26 03:03:25;;;;;;;14.02;3.22;;;2.80;99.90;;;;;;4985964;28;208073;-69
2023/04/26 03:05:51;;;;;;;14.63;2.95;;;2.90;99.90;;;;;;5057919;28;20417;-69
2023/04/26 03:08:17;;;;;;;12.18;2.92;;;2.90;99.90;;;;;;4996412;28;210783;-70
2023/04/26 03:10:44;;;;;;;12.38;3.13;;;3.00;99.90;;;;;;5063310;28;21782;-69
2023/04/26 03:13:10;;;;;;;9.95;2.63;;;3.00;99.90;;;;;;4991035;28;209454;-69
2023/04/26 03:15:37;;;;;;;9.73;2.80;;;3.00;99.90;;;;;;5043128;28;20568;-68
2023/04/26 03:18:03;;;;;;;12.75;3.10;;;2.90;99.90;;;;;;4999056;28;207780;-69
2023/04/26 03:20:29;;;;;;;11.05;2.78;;;3.00;99.90;;;;;;5043804;28;20052;-69
2023/04/26 03:22:55;;;;;;;13.07;2.92;;;2.90;99.90;;;;;;5009627;28;213733;-69
2023/04/26 03:25:22;;;;;;;15.40;3.20;;;2.90;99.90;;;;;;5050821;28;20067;-69
2023/04/26 03:27:48;;;;;;;11.90;2.95;;;2.90;99.90;;;;;;5027643;28;207695;-69
2023/04/26 03:30:14;;;;;;;12.60;3.00;;;2.90;99.90;;;;;;5064328;28;20056;-70
2023/04/26 03:32:40;;;;;;;12.88;3.30;;;2.90;99.90;;;;;;5020135;28;206447;-69
2023/04/26 03:35:07;;;;;;;11.80;3.17;;;2.80;99.90;;;;;;5046570;28;20052;-70
2023/04/26 03:37:33;;;;;;;12.35;3.20;;;2.80;99.90;;;;;;5003810;28;213552;-69
2023/04/26 03:39:59;;;;;;;15.75;3.35;;;2.90;99.90;;;;;;5047848;28;21334;-69
2023/04/26 03:42:25;;;;;;;12.48;3.50;;;2.80;99.90;;;;;;4998326;28;213824;-69
2023/04/26 03:44:51;;;;;;;16.00;3.15;;;2.90;99.90;;;;;;5058094;28;20059;-69
2023/04/26 03:47:17;;;;;;;13.07;3.17;;;2.90;99.90;;;;;;4986788;28;219304;-69
2023/04/26 03:49:43;;;;;;;10.65;2.78;;;3.00;99.90;;;;;;5050834;28;20500;-69
2023/04/26 03:52:09;;;;;;;12.30;3.03;;;3.00;99.90;;;;;;4995797;28;209261;-69
2023/04/26 03:54:36;;;;;;;13.25;3.38;;;3.10;99.90;;;;;;5050284;28;20058;-69
2023/04/26 03:57:02;;;;;;;12.23;3.40;;;3.10;99.90;;;;;;4987824;28;202078;-68
2023/04/26 03:59:28;;;;;;;14.90;3.40;;;3.10;99.90;;;;;;5034952;28;20048;-69
2023/04/26 04:01:54;;;;;;;15.82;2.95;;;3.10;99.90;;;;;;4995142;28;207527;-69
2023/04/26 04:04:20;;;;;;;11.07;2.88;;;3.20;99.90;;;;;;5050385;28;20060;-70
2023/04/26 04:06:46;;;;;;;10.23;3.25;;;3.20;99.90;;;;;;5002685;28;210013;-69
2023/04/26 04:09:13;;;;;;;13.23;3.33;;;3.20;99.90;;;;;;5063297;28;21311;-69
2023/04/26 04:11:39;;;;;;;16.00;3.72;;;3.20;99.90;;;;;;4996329;28;214377;-69
2023/04/26 04:14:06;;;;;;;13.13;3.58;;;3.20;99.90;;;;;;5049586;28;20056;-69
2023/04/26 04:16:32;;;;;;;11.73;3.40;;;3.20;99.90;;;;;;5009375;28;208306;-70
2023/04/26 04:18:58;;;;;;;10.48;3.03;;;3.10;99.90;;;;;;5074025;28;20165;-70
2023/04/26 04:21:24;;;;;;;16.25;3.58;;;3.10;99.90;;;;;;5002659;28;210939;-70
2023/04/26 04:23:50;;;;;;;13.35;3.35;;;3.10;99.90;;;;;;5034238;28;20285;-70
2023/04/26 04:26:17;;;;;;;12.65;3.30;;;3.00;99.90;;;;;;4986945;28;211713;-70
2023/04/26 04:28:45;;;;;;;13.20;3.63;;;3.00;99.90;;;;;;5043063;28;20496;-70
2023/04/26 04:31:12;;;;;;;12.30;3.13;;;2.90;99.90;;;;;;4987816;28;207564;-69
2023/04/26 04:33:38;;;;;;;12.57;3.83;;;2.90;99.90;;;;;;5064763;28;20055;-70
2023/04/26 04:36:05;;;;;;;11.30;3.35;;;2.90;99.90;;;;;;5038349;28;207438;-67
2023/04/26 04:38:31;;;;;;;15.23;3.90;;;2.90;99.90;;;;;;5024627;28;20577;-70
2023/04/26 04:40:58;;;;;;;13.82;3.95;;;2.80;99.90;;;;;;5051009;28;20139;-70
2023/04/26 04:43:24;;;;;;;16.65;3.67;;;2.90;99.90;;;;;;5012227;28;209272;-70
2023/04/26 04:45:50;;;;;;;16.50;3.50;;;2.90;99.90;;;;;;5060593;28;20048;-69
2023/04/26 04:48:17;;;;;;;11.90;3.90;;;2.90;99.90;;;;;;5033869;28;206363;-69
2023/04/26 04:50:43;;;;;;;10.38;3.83;;;2.90;99.90;;;;;;5055429;28;20759;-69
2023/04/26 04:53:11;;;;;;;18.27;4.22;;;2.90;99.90;;;;;;5003631;28;209920;-70
2023/04/26 04:55:37;;;;;;;14.48;4.28;;;2.90;99.90;;;;;;5062100;28;20048;-69
2023/04/26 04:58:03;;;;;;;14.05;4.18;;;2.90;99.90;;;;;;4970494;28;207767;-70
2023/04/26 05:00:30;;;;;;;13.63;3.67;;;3.00;99.90;;;;;;5055775;28;20506;-70
2023/04/26 05:02:56;;;;;;;14.75;3.78;;;3.00;99.90;;;;;;4991412;28;208555;-69
2023/04/26 05:05:22;;;;;;;13.50;3.70;;;3.10;99.90;;;;;;5054459;28;20071;-70
2023/04/26 05:07:48;;;;;;;14.93;3.65;;;3.10;99.90;;;;;;5000627;28;212227;-69
2023/04/26 05:10:15;;;;;;;14.27;3.95;;;3.10;99.90;;;;;;5060590;28;20055;-69
2023/04/26 05:12:41;;;;;;;12.02;3.72;;;3.20;99.90;;;;;;5012068;28;211210;-70
2023/04/26 05:15:08;;;;;;;12.18;3.55;;;3.10;99.90;;;;;;5054944;28;20403;-69
2023/04/26 05:17:34;;;;;;;13.82;3.80;;;3.10;99.90;;;;;;5001226;28;221707;-69
2023/04/26 05:20:05;;;;;;;16.50;3.95;;;3.10;99.90;;;;;;5052161;28;20060;-69
2023/04/26 05:22:31;;;;;;;14.85;3.78;;;3.10;99.90;;;;;;5002264;28;209551;-69
2023/04/26 05:24:57;;;;;;;11.88;3.40;;;3.10;99.90;;;;;;5054742;28;21216;-69
2023/04/26 05:27:23;;;;;;;13.38;3.90;;;3.30;99.90;;;;;;4998222;28;214246;-68
2023/04/26 05:29:49;;;;;;;14.35;3.30;;;3.60;99.90;;;;;;5055958;28;20060;-70
2023/04/26 05:32:15;;;;;;;15.70;3.67;;;3.80;99.90;;;;;;4993058;28;207023;-69
2023/04/26 05:34:42;;;;;;;12.88;3.50;;;4.00;99.90;;;;;;5053804;28;20055;-69
2023/04/26 05:37:08;;;;;;;13.82;3.38;;;4.30;99.90;;;;;;4996891;28;210830;-68
2023/04/26 05:39:34;;;;;;;14.00;3.67;;;4.70;99.90;;;;;;5046785;28;20051;-69
2023/04/26 05:42:02;;;;;;;12.23;3.50;;;5.00;99.90;;;;;;4990787;28;213216;-69
2023/04/26 05:44:28;;;;;;;11.30;3.28;;;5.20;99.90;;;;;;5045285;28;20067;-69
2023/04/26 05:46:54;;;;;;;9.93;3.00;;;5.40;99.90;;;;;;4991375;28;212167;-69
2023/04/26 05:49:20;;;;;;;11.70;3.10;;;5.60;99.90;;;;;;5044096;28;20056;-69
2023/04/26 05:51:47;;;;;;;12.23;3.00;;;5.80;99.90;;;;;;5006515;28;204581;-70
2023/04/26 05:54:13;;;;;;;13.23;3.00;;;6.10;99.90;;;;;;5031156;28;20107;-69
2023/04/26 05:56:39;;;;;;;12.93;2.97;;;6.30;99.90;;;;;;4996496;28;213761;-69
2023/04/26 05:59:05;;;;;;;9.38;2.45;;;6.50;99.90;;;;;;5070486;28;20052;-69
2023/04/26 06:01:31;;;;;;;13.57;3.05;;;6.60;99.90;;;;;;5016898;28;210844;-70
2023/04/26 06:03:57;;;;;;;10.75;2.50;;;6.20;99.90;;;;;;5078306;28;20052;-68
2023/04/26 06:06:23;;;;;;;10.53;2.60;;;6.00;99.90;;;;;;5015347;28;214728;-69
2023/04/26 06:08:50;;;;;;;11.18;2.58;;;6.00;99.90;;;;;;5071556;28;21111;-70
2023/04/26 06:11:16;;;;;;;13.85;2.47;;;6.30;99.90;;;;;;4994236;28;213813;-69
2023/04/26 06:13:42;;;;;;;12.15;2.60;;;6.20;99.90;;;;;;5077474;28;20060;-69
2023/04/26 06:16:08;;;;;;;10.65;2.20;;;5.60;99.90;;;;;;5030477;28;212120;-70
2023/04/26 06:18:35;;;;;;;10.63;2.78;;;5.40;99.90;;;;;;5046645;28;20063;-69
2023/04/26 06:21:01;;;;;;;10.18;2.50;;;5.40;99.90;;;;;;5075366;28;21392;-69
2023/04/26 06:23:27;;;;;;;11.35;2.50;;;5.40;99.90;;;;;;5018311;28;273079;-70
2023/04/26 06:25:53;;;;;;;10.98;2.67;;;5.30;99.90;;;;;;5075765;28;20055;-68
2023/04/26 06:28:19;;;;;;;12.73;2.55;;;5.40;99.90;;;;;;5004441;28;212856;-69
2023/04/26 06:30:45;;;;;;;14.10;2.90;;;5.40;99.90;;;;;;5068065;28;20491;-69
2023/04/26 06:33:11;;;;;;;13.07;2.88;;;5.40;99.90;;;;;;5018624;28;207811;-69
2023/04/26 06:35:41;;;;;;;13.27;2.80;;;5.50;99.90;;;;;;5071269;28;20045;-69
2023/04/26 06:38:07;;;;;;;13.52;2.95;;;5.60;99.90;;;;;;5003019;28;214013;-70
2023/04/26 06:40:37;;;;;;;10.32;2.47;;;5.60;99.90;;;;;;5071455;28;20533;-69
2023/04/26 06:43:03;;;;;;;10.52;2.50;;;5.70;99.90;;;;;;5013019;28;212051;-69
2023/04/26 06:45:31;;;;;;;12.40;2.72;;;5.80;99.90;;;;;;5076543;28;20419;-69
2023/04/26 06:47:59;;;;;;;11.77;2.85;;;5.90;99.90;;;;;;5007189;28;211384;-68
2023/04/26 06:50:25;;;;;;;14.30;2.60;;;6.00;99.90;;;;;;5081558;28;20047;-69
2023/04/26 06:52:52;;;;;;;12.82;2.80;;;6.00;99.90;;;;;;5013319;28;207872;-69
2023/04/26 06:55:18;;;;;;;14.60;2.95;;;6.00;99.90;;;;;;5061834;28;20053;-69
2023/04/26 06:57:44;;;;;;;11.90;2.80;;;6.00;99.90;;;;;;5000997;28;213292;-69
2023/04/26 07:00:11;;;;;;;10.02;2.67;;;6.10;99.90;;;;;;5074224;28;20492;-69
2023/04/26 07:02:37;;;;;;;10.05;2.72;;;6.10;99.90;;;;;;5019883;28;210354;-69
2023/04/26 07:05:04;;;;;;;12.43;2.60;;;6.20;99.90;;;;;;5079856;28;20083;-69
2023/04/26 07:07:30;;;;;;;10.82;2.40;;;6.20;99.90;;;;;;5012124;28;213071;-69
2023/04/26 07:09:56;;;;;;;9.75;2.72;;;6.30;99.90;;;;;;5076871;28;20826;-70
2023/04/26 07:12:22;;;;;;;13.15;2.42;;;6.50;99.90;;;;;;5003116;28;212525;-68
2023/04/26 07:14:48;;;;;;;11.70;2.63;;;6.80;99.90;;;;;;5054693;28;20500;-69
2023/04/26 07:17:14;;;;;;;10.50;2.30;;;7.20;99.90;;;;;;4996032;28;214006;-68
2023/04/26 07:19:41;;;;;;;9.48;2.40;;;7.40;99.90;;;;;;5042466;28;20068;-68
2023/04/26 07:22:07;;;;;;;10.75;2.63;;;7.70;99.90;;;;;;4999318;28;210418;-68
2023/04/26 07:24:33;;;;;;;10.45;2.38;;;8.10;99.90;;;;;;5070142;28;20063;-67
2023/04/26 07:26:59;;;;;;;10.77;2.67;;;8.40;99.90;;;;;;5008144;28;214620;-70
2023/04/26 07:29:26;;;;;;;11.45;2.15;;;8.50;99.90;;;;;;5063678;28;20056;-69
2023/04/26 07:31:52;;;;;;;12.73;1.98;;;8.90;99.90;;;;;;5013006;28;207597;-68
2023/04/26 07:34:18;;;;;;;14.05;2.25;;;9.10;99.90;;;;;;5060076;28;20612;-68
2023/04/26 07:36:44;;;;;;;9.80;1.92;;;9.30;99.90;;;;;;5023145;28;206457;-68
2023/04/26 07:39:10;;;;;;;12.23;1.85;;;9.30;99.90;;;;;;5073892;28;20052;-67
2023/04/26 07:41:36;;;;;;;9.75;1.70;;;9.20;99.90;;;;;;5021383;28;225481;-67
2023/04/26 07:44:03;;;;;;;13.15;2.35;;;9.10;99.90;;;;;;5070428;28;20533;-68
2023/04/26 07:46:29;;;;;;;8.00;1.55;;;9.00;99.90;;;;;;5023369;28;216680;-68
2023/04/26 07:48:55;;;;;;;12.25;1.98;;;8.80;99.90;;;;;;5054940;28;20044;-68
2023/04/26 07:51:21;;;;;;;12.05;2.13;;;8.80;99.90;;;;;;5014217;28;215874;-68
2023/04/26 07:53:48;;;;;;;12.02;2.05;;;8.80;99.90;;;;;;5073326;28;20488;-69
2023/04/26 07:56:14;;;;;;;9.43;1.70;;;8.50;99.90;;;;;;4985718;28;218924;-68
2023/04/26 07:58:40;;;;;;;10.68;2.00;;;8.40;99.90;;;;;;5062399;28;20049;-68
2023/04/26 08:01:07;;;;;;;8.73;1.88;;;8.50;99.90;;;;;;5041022;28;215874;-68
2023/04/26 08:03:33;;;;;;;11.40;1.90;;;8.50;99.90;;;;;;5043605;28;20047;-68
2023/04/26 08:06:00;;;;;;;11.60;2.15;;;8.40;99.90;;;;;;5074457;28;20052;-69
2023/04/26 08:08:27;;;;;;;10.48;2.15;;;8.50;99.90;;;;;;5014894;28;101586;-69
2023/04/26 08:10:54;;;;;;;9.98;2.05;;;8.90;99.90;;;;;;5061128;28;20071;-68
2023/04/26 08:13:21;;;;;;;11.48;2.17;;;9.40;99.90;;;;;;4973753;28;212292;-69
2023/04/26 08:15:56;;;;;;;10.30;2.08;;;9.80;99.90;;;;;;5058134;28;20733;-70
2023/04/26 08:18:23;;;;;;;9.98;2.08;;;10.10;99.90;;;;;;5004109;28;225106;-70
2023/04/26 08:20:54;;;;;;;10.15;2.13;;;10.10;99.90;;;;;;5069399;28;20071;-69
2023/04/26 08:23:21;;;;;;;;;;;10.10;99.90;;;;;;5015871;27;230484;-69
2023/04/26 08:25:48;;;;;;;10.18;2.25;;;10.00;98.70;;;;;;5070066;28;19927;-67
2023/04/26 08:28:15;;;;;;;9.20;2.22;;;9.90;98.80;;;;;;5014911;28;213108;-66
2023/04/26 08:30:42;;;;;;;10.25;1.60;;;9.80;99.30;;;;;;5076034;28;20052;-68
2023/04/26 08:33:11;;;;;;;10.00;2.00;;;9.80;98.30;;;;;;5012558;28;207888;-67
2023/04/26 08:35:37;;;;;;;10.25;2.00;;;9.80;98.40;;;;;;5072579;28;20055;-67
2023/04/26 08:38:03;;;;;;;7.22;1.63;;;9.70;98.60;;;;;;5013441;28;211194;-67
2023/04/26 08:40:30;;;;;;;10.50;2.13;;;9.80;98.70;;;;;;5074562;28;20052;-66
2023/04/26 08:42:56;;;;;;;8.50;2.10;;;10.00;98.20;;;;;;5003741;28;212704;-68
2023/04/26 08:45:23;;;;;;;9.40;1.98;;;10.20;98.10;;;;;;5059633;28;20053;-68
2023/04/26 08:47:55;;;;;;;9.18;1.88;;;10.30;98.50;;;;;;5009686;28;207103;-67
2023/04/26 08:50:22;;;;;;;11.02;1.80;;;10.10;97.80;;;;;;5070882;28;20056;-67
2023/04/26 08:52:50;;;;;;;13.93;2.22;;;10.30;97.80;;;;;;5005833;28;206824;-67
2023/04/26 08:55:18;;;;;;;9.85;1.90;;;10.50;98.80;;;;;;5072231;28;20426;-67
2023/04/26 08:57:49;;;;;;;8.93;1.88;;;10.60;98.30;;;;;;5011305;28;212543;-69
2023/04/26 09:00:16;;;;;;;10.17;2.20;;;10.80;98.90;;;;;;5078184;28;20028;-66
2023/04/26 09:02:48;;;;;;;8.65;1.85;;;11.10;97.90;;;;;;5019174;28;209095;-67
2023/04/26 09:05:14;;;;;;;9.18;1.73;;;11.20;97.20;;;;;;5070204;28;20116;-68
2023/04/26 09:07:43;;;;;;;10.52;2.08;;;11.20;97.30;;;;;;5019633;28;210467;-68
2023/04/26 09:10:11;;;;;;;9.18;2.08;;;11.50;96.90;;;;;;5073598;28;20059;-68
2023/04/26 09:12:38;;;;;;;9.43;1.85;;;10.90;96.90;;;;;;5014728;28;215884;-67
2023/04/26 09:15:06;;;;;;;10.43;1.98;;;10.90;97.20;;;;;;5072642;28;20060;-67
2023/04/26 09:17:35;;;;;;;9.70;1.48;;;10.50;96.80;;;;;;5019332;28;218351;-68
2023/04/26 09:20:26;;;;;;;10.45;2.05;;;10.00;96.60;;;;;;5075369;28;20553;-68
2023/04/26 09:23:02;;;;;;;8.80;1.77;;;9.80;97.80;;;;;;5025370;28;212513;-68
2023/04/26 09:25:30;;;;;;;12.32;2.00;;;9.60;97.70;;;;;;5075292;28;20052;-67
2023/04/26 09:27:57;;;;;;;9.73;2.10;;;9.40;97.90;;;;;;5002486;28;210220;-67
2023/04/26 09:30:24;;;;;;;11.65;2.30;;;9.40;98.90;;;;;;5057711;28;20399;-67
2023/04/26 09:32:56;;;;;;;9.77;2.33;;;9.00;99.60;;;;;;4996353;28;216948;-68
2023/04/26 09:35:36;;;;;;;8.30;2.15;;;8.90;99.90;;;;;;5057066;28;20044;-66
2023/04/26 09:38:05;;;;;;;11.87;2.50;;;8.70;99.90;;;;;;4995375;28;213401;-68
2023/04/26 09:40:34;;;;;;;9.52;2.05;;;8.80;99.90;;;;;;5055622;28;20056;-68
2023/04/26 09:43:03;;;;;;;12.15;2.20;;;8.90;99.90;;;;;;5000146;28;212428;-69
2023/04/26 09:45:31;;;;;;;11.52;2.47;;;8.50;99.90;;;;;;5051206;28;20758;-68
2023/04/26 09:48:15;;;;;;;13.98;2.70;;;8.30;99.90;;;;;;4991694;28;207330;-68
2023/04/26 09:50:45;;;;;;;10.80;1.90;;;8.30;99.90;;;;;;5055446;28;20053;-67
2023/04/26 09:53:24;;;;;;;11.82;2.08;;;8.20;99.90;;;;;;4964784;28;216407;-68
2023/04/26 09:55:50;;;;;;;10.85;2.13;;;8.40;99.90;;;;;;5051705;28;20056;-68
2023/04/26 09:58:17;;;;;;;12.07;1.85;;;8.50;99.90;;;;;;4981518;28;215492;-68
2023/04/26 10:00:43;;;;;;;10.35;1.92;;;8.50;99.90;;;;;;5052915;28;20045;-66
2023/04/26 10:03:11;;;;;;;13.57;2.35;;;8.50;99.90;;;;;;5010068;28;212558;-67
2023/04/26 10:05:38;;;;;;;11.65;2.33;;;8.50;99.90;;;;;;5056756;28;20055;-66
2023/04/26 10:08:05;;;;;;;10.80;2.42;;;8.50;99.90;;;;;;5002930;28;210988;-68
2023/04/26 10:10:33;;;;;;;11.75;2.33;;;8.40;99.90;;;;;;5052971;28;20057;-68
2023/04/26 10:12:59;;;;;;;9.30;1.83;;;8.30;99.90;;;;;;5018710;28;210612;-69
2023/04/26 10:15:26;;;;;;;9.00;2.30;;;8.30;99.90;;;;;;5054640;28;20059;-68
2023/04/26 10:17:52;;;;;;;11.95;2.33;;;8.40;99.90;;;;;;4980471;28;214662;-67
2023/04/26 10:20:20;;;;;;;12.63;2.67;;;8.40;99.80;;;;;;5052539;28;20053;-67
2023/04/26 10:22:52;;;;;;;12.40;2.22;;;8.60;99.90;;;;;;4995921;28;205929;-68
2023/04/26 10:25:18;;;;;;;15.15;2.33;;;8.90;99.20;;;;;;5051591;28;20064;-69
2023/04/26 10:27:45;;;;;;;11.70;2.30;;;8.80;98.90;;;;;;4998603;28;212363;-69
2023/04/26 10:30:31;;;;;;;9.75;2.33;;;8.80;99.40;;;;;;5056400;28;20052;-68
2023/04/26 10:32:57;;;;;;;9.00;2.03;;;9.10;98.60;;;;;;5008526;28;209142;-69
2023/04/26 10:35:27;;;;;;;10.70;2.13;;;9.10;98.50;;;;;;5057204;28;20049;-68
2023/04/26 10:37:59;;;;;;;13.95;3.20;;;9.10;99.20;;;;;;5001674;28;210564;-67
2023/04/26 10:40:29;;;;;;;9.38;2.15;;;9.10;99.10;;;;;;5056243;28;20040;-68
2023/04/26 10:43:10;;;;;;;11.38;2.10;;;9.30;99.20;;;;;;4993962;28;210159;-66
2023/04/26 10:45:38;;;;;;;9.55;1.95;;;9.30;98.30;;;;;;5057945;28;20048;-67
2023/04/26 10:48:30;;;;;;;7.82;1.75;;;9.30;98.70;;;;;;4999723;28;210940;-68
2023/04/26 10:51:00;;;;;;;10.02;2.10;;;9.30;98.60;;;;;;5053345;28;20057;-67
2023/04/26 10:53:52;;;;;;;13.55;2.40;;;9.30;99.30;;;;;;4996222;28;210963;-68
2023/04/26 10:56:30;;;;;;;7.32;1.67;;;9.50;98.80;;;;;;4988280;28;216414;-68
2023/04/26 10:59:11;;;;;;;10.35;2.00;;;9.40;98.10;;;;;;5068974;28;20112;-67
2023/04/26 11:01:38;;;;;;;11.50;2.28;;;9.40;98.70;;;;;;5010657;28;215241;-68
2023/04/26 11:04:11;;;;;;;11.50;2.10;;;9.50;98.60;;;;;;5028659;28;20056;-67
2023/04/26 11:06:50;;;;;;;9.02;2.03;;;9.70;98.80;;;;;;4988630;28;211095;-69
2023/04/26 11:09:55;;;;;;;11.43;2.13;;;9.70;97.90;;;;;;5064926;28;20061;-68
2023/04/26 11:12:21;;;;;;;9.90;2.15;;;9.80;98.10;;;;;;4979169;28;215859;-68
2023/04/26 11:14:47;;;;;;;14.43;2.65;;;9.90;98.10;;;;;;5056643;28;20072;-68
2023/04/26 11:17:13;;;;;;;11.40;2.40;;;10.20;98.10;;;;;;4982814;28;207868;-68
2023/04/26 11:19:40;;;;;;;9.73;2.35;;;10.60;98.10;;;;;;5059265;28;21564;-67
2023/04/26 11:22:07;;;;;;;9.07;2.28;;;10.70;97.30;;;;;;5005495;28;189603;-67
2023/04/26 11:24:37;;;;;;;11.13;2.55;;;10.80;97.40;;;;;;5051563;28;20067;-67
2023/04/26 11:27:10;;;;;;;9.80;2.28;;;10.80;98.00;;;;;;5014040;28;65358;-67
2023/04/26 11:29:37;;;;;;;9.73;2.30;;;10.90;97.10;;;;;;5056274;28;20308;-68
2023/04/26 11:32:04;;;;;;;8.80;2.08;;;11.00;97.90;;;;;;4985257;28;214975;-69
2023/04/26 11:34:37;;;;;;;11.65;2.55;;;10.70;96.80;;;;;;5043472;28;20044;-69
2023/04/26 11:37:05;;;;;;;8.27;2.00;;;9.80;97.60;;;;;;4999209;28;206972;-68
2023/04/26 11:39:35;;;;;;;12.35;2.65;;;9.20;98.90;;;;;;5039803;28;20539;-69
2023/04/26 11:42:06;;;;;;;10.27;2.25;;;8.80;99.40;;;;;;4988544;28;225854;-68
2023/04/26 11:44:32;;;;;;;8.90;2.20;;;8.60;99.90;;;;;;5063686;28;20565;-68
2023/04/26 11:47:05;;;;;;;9.50;2.00;;;8.60;99.70;;;;;;5007789;28;210550;-68
2023/04/26 11:49:32;;;;;;;8.23;2.10;;;8.40;99.20;;;;;;5055716;28;20048;-68
2023/04/26 11:52:00;;;;;;;9.80;1.90;;;8.20;99.10;;;;;;4991941;28;210590;-68
2023/04/26 11:54:31;;;;;;;9.32;2.00;;;8.20;99.70;;;;;;5026607;28;20416;-68
2023/04/26 11:56:57;;;;;;;7.07;1.83;;;8.30;99.70;;;;;;4962392;28;211572;-67
2023/04/26 11:59:28;;;;;;;10.55;2.03;;;8.40;99.70;;;;;;5038435;28;20757;-68
2023/04/26 12:01:57;;;;;;;7.05;1.92;;;8.50;99.20;;;;;;4993890;28;207740;-67
2023/04/26 12:04:28;;;;;;;10.32;2.42;;;8.60;98.90;;;;;;5054594;28;20660;-67
2023/04/26 12:06:55;;;;;;;10.45;2.50;;;8.70;99.00;;;;;;4999906;28;215656;-67
2023/04/26 12:09:28;;;;;;;12.73;2.50;;;8.90;98.70;;;;;;5054522;28;20064;-67
2023/04/26 12:11:58;;;;;;;9.88;2.20;;;9.00;98.00;;;;;;5006278;28;216181;-67
2023/04/26 12:14:32;;;;;;;10.05;2.22;;;9.00;98.40;;;;;;5050951;28;20088;-68
2023/04/26 12:17:00;;;;;;;8.77;2.40;;;9.10;98.30;;;;;;5016134;28;213266;-68
2023/04/26 12:19:26;;;;;;;10.15;2.10;;;9.20;98.60;;;;;;5076362;28;20048;-69
2023/04/26 12:21:53;;;;;;;11.15;2.30;;;9.40;98.20;;;;;;5004941;28;212361;-68
2023/04/26 12:24:25;;;;;;;12.55;2.17;;;9.50;98.00;;;;;;5049593;28;20071;-68
2023/04/26 12:26:51;;;;;;;12.35;2.22;;;9.50;98.30;;;;;;5008039;28;216499;-68
2023/04/26 12:29:17;;;;;;;11.98;2.60;;;9.50;98.10;;;;;;5069712;28;20059;-68
2023/04/26 12:31:45;;;;;;;11.15;2.42;;;9.40;99.90;;;;;;5013257;28;208106;-68
2023/04/26 12:34:11;;;;;;;10.30;2.70;;;9.40;99.90;;;;;;5068377;28;20052;-68
2023/04/26 12:36:39;;;;;;;11.30;2.55;;;9.20;99.90;;;;;;5022242;28;154420;-67
2023/04/26 12:39:06;;;;;;;11.82;3.20;;;9.00;99.90;;;;;;5064706;28;20052;-67
2023/04/26 12:41:32;;;;;;;13.88;2.60;;;8.70;99.90;;;;;;5015301;28;212368;-67
2023/04/26 12:43:58;;;;;;;10.75;2.67;;;8.60;99.90;;;;;;5077599;28;20063;-68